10h05 EDT


 

Suivi/Infos de l'aéroport


-ou-


 

Suivi des vols en temps réelTradewind #590

Thumbnail
Tradewind 590
GPD590 · "Goodspeed" (tous les vols)
Nantucket Memorial ()
Waterbury-Oxford ()
13h52 EDT
14h40 EDT
Prévu: 13h20 EDT
Moyenne: 13h26 EDT
Prévu: 14h05 EDT
Moyenne: 13h56 EDT
Durée: 48 minutes
lundi, 28 juillet 2014
Statut A atterri il y a 3 jours (journal de vol & graphique)
Avion Pilatus PC-12 (monoturbopropulseur) (PC12 – photos)
Vitesse Plan de vol: 212 kts (graphique)
Altitude Plan de vol: 10.000 Pieds (graphique)
Distance En ligne droite 258 km    Prévue 288 km    Parcourue 294 km
Route V34 SEY SEY235 V46 HTO HTO302 KEYED (Décoder)
JOURNAL DE L'ACTIVITE
Vous voulez une recherche complète sur l'historique de GPD590 depuis 1998? Achetez maintenant. Recevez-le dans l'heure.
Date Avion Provenance Destination Départ Arrivée Durée
28-07-2014 PC12Nantucket Memorial ()Waterbury-Oxford () 13h52 EDT 14h40 EDT 0:48
28-07-2014 PC12/GTeterboro ()Nantucket Memorial () 12h36 EDT 13h27 EDT 0:50
28-07-2014 PC12/GNantucket Memorial ()Teterboro () 10h34 EDT 11h41 EDT 1:07
28-07-2014 PC12/GTeterboro ()Nantucket Memorial () 08h56 EDT 09h59 EDT 1:02
28-07-2014 PC12/GNantucket Memorial ()Teterboro () 07h08 EDT 08h15 EDT 1:07
28-07-2014 PC12/GWaterbury-Oxford ()Nantucket Memorial () 05h39 EDT 06h28 EDT 0:49
27-07-2014 PC12Nantucket Memorial ()Teterboro () 20h46 EDT 21h43 EDT 0:57
27-07-2014 PC12/GTeterboro ()Nantucket Memorial () 19h13 EDT 20h15 EDT 1:02
27-07-2014 PC12/GNantucket Memorial ()Teterboro () 17h21 EDT 18h28 EDT 1:07
27-07-2014 PC12/GWestchester County ()Nantucket Memorial () 15h24 EDT 16h19 EDT 0:55
27-07-2014 PC12/GNantucket Memorial ()Westchester County () 13h35 EDT 14h27 EDT 0:52
27-07-2014 PC12/GWaterbury-Oxford ()Martha's Vineyard () 10h59 EDT 11h29 EDT 0:30
26-07-2014 PC12Nantucket Memorial ()Waterbury-Oxford () 18h15 EDT 19h04 EDT 0:49
26-07-2014 PC12/GWestchester County ()Nantucket Memorial () 13h47 EDT 14h56 EDT (?) 1:09
25-07-2014 PC12Nantucket Memorial ()Waterbury-Oxford () 20h25 EDT 21h15 EDT 0:50
25-07-2014 PC12/GTeterboro ()Nantucket Memorial () 18h53 EDT 19h41 EDT 0:48
25-07-2014 PC12Nantucket Memorial ()Teterboro () 17h14 EDT 18h02 EDT 0:48
25-07-2014 PC12Nantucket Memorial ()Nantucket Memorial () 15h59 EDT 16h51 EDT 0:52
25-07-2014 PC12/GNantucket Memorial ()Teterboro () 13h22 EDT 14h25 EDT 1:03
25-07-2014 PC12/GTeterboro ()Nantucket Memorial () 12h02 EDT 13h02 EDT 1:00
25-07-2014 PC12/GWaterbury-Oxford ()Teterboro () 11h21 EDT 11h45 EDT (?) 0:24
24-07-2014 PC12Nantucket Memorial ()Waterbury-Oxford () 20h24 EDT 21h03 EDT 0:39
24-07-2014 PC12Teterboro ()Nantucket Memorial () 19h10 EDT 20h01 EDT 0:51
24-07-2014 PC12Nantucket Memorial ()Teterboro () 17h22 EDT 18h16 EDT 0:54
24-07-2014 PC12Nantucket Memorial ()Teterboro () 14h02 EDT 14h54 EDT 0:52
24-07-2014 PC12Teterboro ()Nantucket Memorial () 12h22 EDT 13h13 EDT 0:51
24-07-2014 PC12/GNantucket Memorial ()Teterboro () 10h30 EDT 11h34 EDT 1:04
24-07-2014 PC12/GGroton-New London ()Nantucket Memorial () 08h50 EDT 09h41 EDT (?) 0:50
22-07-2014 PC12/GProvidence ()Teterboro () 11h51 EDT 12h30 EDT 0:39
22-07-2014 PC12/GTeterboro ()Providence () 08h44 EDT 09h21 EDT 0:36
21-07-2014 PC12Nantucket Memorial ()Teterboro () 18h06 EDT 18h55 EDT 0:49
21-07-2014 PC12/GTeterboro ()Nantucket Memorial () 16h38 EDT 17h33 EDT 0:55
21-07-2014 PC12/GNantucket Memorial ()Teterboro () 15h04 EDT 15h57 EDT 0:53
21-07-2014 PC12/GTeterboro ()Nantucket Memorial () 12h14 EDT 12h49 EDT 0:35
21-07-2014 PC12Nantucket Memorial ()Teterboro () 10h19 EDT 11h14 EDT 0:55
21-07-2014 PC12/GTeterboro ()Nantucket Memorial () 08h34 EDT 09h31 EDT 0:56
21-07-2014 PC12/GNantucket Memorial ()Teterboro () 07h06 EDT 07h57 EDT 0:51
21-07-2014 PC12Hartford-Brainard ()Nantucket Memorial () 05h33 EDT 06h19 EDT 0:46
20-07-2014 PC12Int'l de Bangor ()Westchester County () 19h06 EDT 20h40 EDT 1:34
20-07-2014 PC12Int'l de Bangor ()Huron Rgnl () 19h06 EDT Dérouté
20-07-2014 PC12/GPort Hawkesbury ()Int'l de Bangor () 18h02 ADT 18h28 EDT 1:25
17-07-2014 PC12/RInt'l Stanfield d'Halifax ()Port Hawkesbury () 11h09 ADT 11h49 ADT 0:40
Les membres inscrits (l'inscription est gratuite et facile!) voient 4 months d'historique. S'inscrire